sensor_id;sensor_type;location;lat;lon;timestamp;pressure;altitude;pressure_sealevel;temperature;humidity
56241;BME280;42155;53.096;23.226;2024-03-29T00:00:42;98088.13;;;7.20;82.41
56241;BME280;42155;53.096;23.226;2024-03-29T00:02:42;98104.66;;;7.22;83.05
56241;BME280;42155;53.096;23.226;2024-03-29T00:04:43;98106.16;;;7.24;82.79
56241;BME280;42155;53.096;23.226;2024-03-29T00:06:43;98102.53;;;7.25;83.12
56241;BME280;42155;53.096;23.226;2024-03-29T00:08:43;98100.44;;;7.29;83.39
56241;BME280;42155;53.096;23.226;2024-03-29T00:10:46;98096.97;;;7.28;82.97
56241;BME280;42155;53.096;23.226;2024-03-29T00:12:47;98083.41;;;7.23;83.05
56241;BME280;42155;53.096;23.226;2024-03-29T00:14:47;98086.50;;;7.19;82.90
56241;BME280;42155;53.096;23.226;2024-03-29T00:16:48;98101.16;;;7.31;83.23
56241;BME280;42155;53.096;23.226;2024-03-29T00:18:48;98111.69;;;7.31;82.92
56241;BME280;42155;53.096;23.226;2024-03-29T00:20:49;98114.34;;;7.31;83.65
56241;BME280;42155;53.096;23.226;2024-03-29T00:22:49;98086.38;;;7.10;83.52
56241;BME280;42155;53.096;23.226;2024-03-29T00:24:49;98106.31;;;7.23;83.61
56241;BME280;42155;53.096;23.226;2024-03-29T00:26:50;98107.00;;;7.25;83.13
56241;BME280;42155;53.096;23.226;2024-03-29T00:28:50;98112.28;;;7.25;83.36
56241;BME280;42155;53.096;23.226;2024-03-29T00:30:50;98117.88;;;7.22;83.32
56241;BME280;42155;53.096;23.226;2024-03-29T00:32:51;98113.47;;;7.12;83.26
56241;BME280;42155;53.096;23.226;2024-03-29T00:34:52;98121.00;;;7.07;83.25
56241;BME280;42155;53.096;23.226;2024-03-29T00:36:52;98107.09;;;7.05;83.29
56241;BME280;42155;53.096;23.226;2024-03-29T00:38:53;98129.84;;;7.06;83.39
56241;BME280;42155;53.096;23.226;2024-03-29T00:40:53;98079.66;;;6.71;83.36
56241;BME280;42155;53.096;23.226;2024-03-29T00:42:54;98121.16;;;6.96;83.67
56241;BME280;42155;53.096;23.226;2024-03-29T00:44:54;98130.44;;;7.00;83.32
56241;BME280;42155;53.096;23.226;2024-03-29T00:46:54;98072.03;;;6.68;83.03
56241;BME280;42155;53.096;23.226;2024-03-29T00:48:55;98137.38;;;7.01;83.53
56241;BME280;42155;53.096;23.226;2024-03-29T00:50:55;98137.69;;;6.98;83.25
56241;BME280;42155;53.096;23.226;2024-03-29T00:52:55;98124.69;;;6.87;83.48
56241;BME280;42155;53.096;23.226;2024-03-29T00:54:56;98139.91;;;6.93;82.98
56241;BME280;42155;53.096;23.226;2024-03-29T00:56:56;98144.34;;;6.93;83.00
56241;BME280;42155;53.096;23.226;2024-03-29T00:58:57;98141.31;;;6.87;83.08
56241;BME280;42155;53.096;23.226;2024-03-29T01:00:57;98135.50;;;6.84;83.42
56241;BME280;42155;53.096;23.226;2024-03-29T01:02:57;98136.06;;;6.87;83.59
56241;BME280;42155;53.096;23.226;2024-03-29T01:04:58;98143.84;;;6.89;83.11
56241;BME280;42155;53.096;23.226;2024-03-29T01:06:58;98151.88;;;6.87;83.66
56241;BME280;42155;53.096;23.226;2024-03-29T01:08:59;98140.50;;;6.87;83.57
56241;BME280;42155;53.096;23.226;2024-03-29T01:11:00;98141.91;;;6.81;83.00
56241;BME280;42155;53.096;23.226;2024-03-29T01:13:00;98089.84;;;6.46;83.29
56241;BME280;42155;53.096;23.226;2024-03-29T01:15:01;98149.97;;;6.80;83.25
56241;BME280;42155;53.096;23.226;2024-03-29T01:17:02;98156.91;;;6.81;83.58
56241;BME280;42155;53.096;23.226;2024-03-29T01:19:02;98152.72;;;6.78;83.06
56241;BME280;42155;53.096;23.226;2024-03-29T01:21:02;98149.13;;;6.79;83.78
56241;BME280;42155;53.096;23.226;2024-03-29T01:23:03;98143.00;;;6.79;83.01
56241;BME280;42155;53.096;23.226;2024-03-29T01:25:03;98145.97;;;6.76;82.97
56241;BME280;42155;53.096;23.226;2024-03-29T01:27:04;98149.13;;;6.79;83.15
56241;BME280;42155;53.096;23.226;2024-03-29T01:29:04;98126.84;;;6.64;82.95
56241;BME280;42155;53.096;23.226;2024-03-29T01:31:05;98161.63;;;6.77;83.44
56241;BME280;42155;53.096;23.226;2024-03-29T01:33:05;98163.59;;;6.75;83.48
56241;BME280;42155;53.096;23.226;2024-03-29T01:35:06;98163.88;;;6.72;83.06
56241;BME280;42155;53.096;23.226;2024-03-29T01:37:06;98161.38;;;6.71;83.20
56241;BME280;42155;53.096;23.226;2024-03-29T01:39:07;98165.81;;;6.70;83.46
56241;BME280;42155;53.096;23.226;2024-03-29T01:41:07;98171.63;;;6.74;83.00
56241;BME280;42155;53.096;23.226;2024-03-29T01:43:08;98166.69;;;6.61;83.33
56241;BME280;42155;53.096;23.226;2024-03-29T01:45:08;98168.19;;;6.63;83.53
56241;BME280;42155;53.096;23.226;2024-03-29T01:47:09;98187.44;;;6.74;83.54
56241;BME280;42155;53.096;23.226;2024-03-29T01:49:09;98183.69;;;6.76;82.86
56241;BME280;42155;53.096;23.226;2024-03-29T01:51:10;98181.88;;;6.77;83.27
56241;BME280;42155;53.096;23.226;2024-03-29T01:53:12;98186.88;;;6.80;83.56
56241;BME280;42155;53.096;23.226;2024-03-29T01:55:13;98185.59;;;6.84;83.24
56241;BME280;42155;53.096;23.226;2024-03-29T01:57:14;98129.53;;;6.45;83.42
56241;BME280;42155;53.096;23.226;2024-03-29T01:59:16;98182.28;;;6.82;82.85
56241;BME280;42155;53.096;23.226;2024-03-29T02:01:18;98197.81;;;6.85;83.44
56241;BME280;42155;53.096;23.226;2024-03-29T02:03:19;98169.69;;;6.76;83.56
56241;BME280;42155;53.096;23.226;2024-03-29T02:05:20;98199.59;;;6.94;83.63
56241;BME280;42155;53.096;23.226;2024-03-29T02:07:20;98202.09;;;6.96;82.99
56241;BME280;42155;53.096;23.226;2024-03-29T02:09:20;98194.59;;;6.91;83.40
56241;BME280;42155;53.096;23.226;2024-03-29T02:11:21;98213.44;;;7.06;83.63
56241;BME280;42155;53.096;23.226;2024-03-29T02:13:22;98221.75;;;7.11;83.67
56241;BME280;42155;53.096;23.226;2024-03-29T02:15:22;98222.56;;;7.11;83.66
56241;BME280;42155;53.096;23.226;2024-03-29T02:17:22;98228.41;;;7.15;83.50
56241;BME280;42155;53.096;23.226;2024-03-29T02:19:23;98228.66;;;7.22;83.16
56241;BME280;42155;53.096;23.226;2024-03-29T02:21:23;98223.91;;;7.25;83.22
56241;BME280;42155;53.096;23.226;2024-03-29T02:23:27;98229.06;;;7.27;84.04
56241;BME280;42155;53.096;23.226;2024-03-29T02:25:29;98231.38;;;7.30;83.95
56241;BME280;42155;53.096;23.226;2024-03-29T02:27:30;98230.81;;;7.36;83.98
56241;BME280;42155;53.096;23.226;2024-03-29T02:29:30;98212.53;;;7.25;83.97
56241;BME280;42155;53.096;23.226;2024-03-29T02:31:31;98224.56;;;7.37;83.34
56241;BME280;42155;53.096;23.226;2024-03-29T02:33:31;98254.00;;;7.42;83.62
56241;BME280;42155;53.096;23.226;2024-03-29T02:35:31;98231.94;;;7.33;83.92
56241;BME280;42155;53.096;23.226;2024-03-29T02:37:32;98231.81;;;7.35;84.14
56241;BME280;42155;53.096;23.226;2024-03-29T02:39:32;98256.88;;;7.49;84.13
56241;BME280;42155;53.096;23.226;2024-03-29T02:41:32;98260.50;;;7.48;84.40
56241;BME280;42155;53.096;23.226;2024-03-29T02:43:33;98268.50;;;7.56;84.36
56241;BME280;42155;53.096;23.226;2024-03-29T02:45:33;98267.41;;;7.58;84.68
56241;BME280;42155;53.096;23.226;2024-03-29T02:47:33;98265.44;;;7.60;84.03
56241;BME280;42155;53.096;23.226;2024-03-29T02:49:34;98271.72;;;7.59;84.82
56241;BME280;42155;53.096;23.226;2024-03-29T02:51:34;98273.47;;;7.69;84.77
56241;BME280;42155;53.096;23.226;2024-03-29T02:53:35;98264.00;;;7.66;84.37
56241;BME280;42155;53.096;23.226;2024-03-29T02:55:35;98268.19;;;7.69;84.99
56241;BME280;42155;53.096;23.226;2024-03-29T02:57:37;98281.50;;;7.77;84.51
56241;BME280;42155;53.096;23.226;2024-03-29T02:59:39;98289.50;;;7.85;84.66
56241;BME280;42155;53.096;23.226;2024-03-29T03:01:40;98301.44;;;7.89;85.04
56241;BME280;42155;53.096;23.226;2024-03-29T03:03:40;98296.16;;;7.89;84.58
56241;BME280;42155;53.096;23.226;2024-03-29T03:05:41;98303.50;;;7.95;85.19
56241;BME280;42155;53.096;23.226;2024-03-29T03:07:41;98305.53;;;8.01;84.96
56241;BME280;42155;53.096;23.226;2024-03-29T03:09:41;98316.09;;;8.01;85.09
56241;BME280;42155;53.096;23.226;2024-03-29T03:11:42;98320.78;;;8.07;85.09
56241;BME280;42155;53.096;23.226;2024-03-29T03:13:42;98324.97;;;8.10;84.61
56241;BME280;42155;53.096;23.226;2024-03-29T03:15:42;98321.88;;;8.14;84.46
56241;BME280;42155;53.096;23.226;2024-03-29T03:17:43;98329.09;;;8.12;84.41
56241;BME280;42155;53.096;23.226;2024-03-29T03:19:43;98329.09;;;8.12;84.78
56241;BME280;42155;53.096;23.226;2024-03-29T03:21:44;98325.50;;;8.13;84.50
56241;BME280;42155;53.096;23.226;2024-03-29T03:23:44;98346.03;;;8.20;85.07
56241;BME280;42155;53.096;23.226;2024-03-29T03:25:46;98357.00;;;8.25;84.76
56241;BME280;42155;53.096;23.226;2024-03-29T03:27:46;98356.00;;;8.26;84.90
56241;BME280;42155;53.096;23.226;2024-03-29T03:29:47;98354.34;;;8.25;84.62
56241;BME280;42155;53.096;23.226;2024-03-29T03:31:47;98374.06;;;8.30;84.27
56241;BME280;42155;53.096;23.226;2024-03-29T03:33:48;98373.25;;;8.30;84.63
56241;BME280;42155;53.096;23.226;2024-03-29T03:35:48;98352.59;;;8.15;83.99
56241;BME280;42155;53.096;23.226;2024-03-29T03:37:49;98383.53;;;8.33;84.20
56241;BME280;42155;53.096;23.226;2024-03-29T03:39:49;98393.78;;;8.36;84.73
56241;BME280;42155;53.096;23.226;2024-03-29T03:41:49;98404.09;;;8.39;84.09
56241;BME280;42155;53.096;23.226;2024-03-29T03:43:50;98405.75;;;8.40;84.42
56241;BME280;42155;53.096;23.226;2024-03-29T03:45:50;98411.44;;;8.45;83.96
56241;BME280;42155;53.096;23.226;2024-03-29T03:47:50;98417.41;;;8.47;84.50
56241;BME280;42155;53.096;23.226;2024-03-29T03:49:51;98418.91;;;8.50;84.30
56241;BME280;42155;53.096;23.226;2024-03-29T03:51:51;98423.91;;;8.53;83.94
56241;BME280;42155;53.096;23.226;2024-03-29T03:53:51;98407.72;;;8.38;84.23
56241;BME280;42155;53.096;23.226;2024-03-29T03:55:52;98434.34;;;8.54;84.61
56241;BME280;42155;53.096;23.226;2024-03-29T03:57:53;98418.41;;;8.46;84.58
56241;BME280;42155;53.096;23.226;2024-03-29T03:59:53;98431.84;;;8.53;84.56
56241;BME280;42155;53.096;23.226;2024-03-29T04:01:53;98445.47;;;8.58;83.91
56241;BME280;42155;53.096;23.226;2024-03-29T04:03:54;98439.94;;;8.51;84.08
56241;BME280;42155;53.096;23.226;2024-03-29T04:05:54;98444.25;;;8.52;84.46
56241;BME280;42155;53.096;23.226;2024-03-29T04:07:55;98430.25;;;8.42;84.35
56241;BME280;42155;53.096;23.226;2024-03-29T04:09:55;98398.91;;;8.20;84.09
56241;BME280;42155;53.096;23.226;2024-03-29T04:11:55;98470.09;;;8.58;84.36
56241;BME280;42155;53.096;23.226;2024-03-29T04:13:56;98478.03;;;8.58;84.58
56241;BME280;42155;53.096;23.226;2024-03-29T04:16:03;98488.31;;;8.61;84.60
56241;BME280;42155;53.096;23.226;2024-03-29T04:18:04;98489.13;;;8.62;84.40
56241;BME280;42155;53.096;23.226;2024-03-29T04:20:04;98499.72;;;8.62;84.87
56241;BME280;42155;53.096;23.226;2024-03-29T04:22:05;98505.16;;;8.60;84.34
56241;BME280;42155;53.096;23.226;2024-03-29T04:24:05;98501.53;;;8.61;84.86
56241;BME280;42155;53.096;23.226;2024-03-29T04:26:06;98479.72;;;8.50;84.54
56241;BME280;42155;53.096;23.226;2024-03-29T04:28:06;98507.22;;;8.66;84.53
56241;BME280;42155;53.096;23.226;2024-03-29T04:30:07;98516.69;;;8.69;84.53
56241;BME280;42155;53.096;23.226;2024-03-29T04:32:08;98516.13;;;8.65;84.51
56241;BME280;42155;53.096;23.226;2024-03-29T04:34:09;98513.63;;;8.64;84.44
56241;BME280;42155;53.096;23.226;2024-03-29T04:36:09;98511.50;;;8.67;84.56
56241;BME280;42155;53.096;23.226;2024-03-29T04:38:09;98518.19;;;8.72;84.33
56241;BME280;42155;53.096;23.226;2024-03-29T04:40:10;98513.88;;;8.71;85.00
56241;BME280;42155;53.096;23.226;2024-03-29T04:42:11;98528.91;;;8.70;84.42
56241;BME280;42155;53.096;23.226;2024-03-29T04:44:13;98530.56;;;8.71;84.35
56241;BME280;42155;53.096;23.226;2024-03-29T04:46:14;98502.56;;;8.51;84.36
56241;BME280;42155;53.096;23.226;2024-03-29T04:48:14;98538.50;;;8.71;84.39
56241;BME280;42155;53.096;23.226;2024-03-29T04:50:15;98529.34;;;8.65;85.06
56241;BME280;42155;53.096;23.226;2024-03-29T04:52:15;98523.53;;;8.62;84.96
56241;BME280;42155;53.096;23.226;2024-03-29T04:54:17;98532.84;;;8.66;84.50
56241;BME280;42155;53.096;23.226;2024-03-29T04:56:17;98547.03;;;8.65;84.73
56241;BME280;42155;53.096;23.226;2024-03-29T04:58:18;98554.53;;;8.70;84.62
56241;BME280;42155;53.096;23.226;2024-03-29T05:00:18;98559.50;;;8.73;85.17
56241;BME280;42155;53.096;23.226;2024-03-29T05:02:19;98559.81;;;8.70;85.06
56241;BME280;42155;53.096;23.226;2024-03-29T05:04:19;98555.22;;;8.72;84.61
56241;BME280;42155;53.096;23.226;2024-03-29T05:06:20;98564.81;;;8.73;84.52
56241;BME280;42155;53.096;23.226;2024-03-29T05:08:20;98532.00;;;8.65;84.83
56241;BME280;42155;53.096;23.226;2024-03-29T05:10:21;98545.34;;;8.74;84.58
56241;BME280;42155;53.096;23.226;2024-03-29T05:12:21;98555.31;;;8.80;84.34
56241;BME280;42155;53.096;23.226;2024-03-29T05:14:21;98541.09;;;8.81;84.96
56241;BME280;42155;53.096;23.226;2024-03-29T05:16:22;98530.13;;;8.76;84.62
56241;BME280;42155;53.096;23.226;2024-03-29T05:18:22;98553.34;;;8.82;84.68
56241;BME280;42155;53.096;23.226;2024-03-29T05:20:22;98561.28;;;8.82;84.34
56241;BME280;42155;53.096;23.226;2024-03-29T05:22:23;98538.66;;;8.70;84.34
56241;BME280;42155;53.096;23.226;2024-03-29T05:24:23;98551.97;;;8.78;84.36
56241;BME280;42155;53.096;23.226;2024-03-29T05:26:24;98529.63;;;8.62;84.45
56241;BME280;42155;53.096;23.226;2024-03-29T05:28:24;98560.59;;;8.80;84.64
56241;BME280;42155;53.096;23.226;2024-03-29T05:30:24;98565.63;;;8.83;84.09
56241;BME280;42155;53.096;23.226;2024-03-29T05:32:25;98571.19;;;8.80;84.13
56241;BME280;42155;53.096;23.226;2024-03-29T05:34:25;98588.44;;;8.84;84.50
56241;BME280;42155;53.096;23.226;2024-03-29T05:36:25;98573.00;;;8.79;84.46
56241;BME280;42155;53.096;23.226;2024-03-29T05:38:26;98580.91;;;8.89;83.99
56241;BME280;42155;53.096;23.226;2024-03-29T05:40:26;98532.00;;;8.65;84.31
56241;BME280;42155;53.096;23.226;2024-03-29T05:42:27;98581.50;;;9.01;84.02
56241;BME280;42155;53.096;23.226;2024-03-29T05:44:27;98565.59;;;9.10;83.69
56241;BME280;42155;53.096;23.226;2024-03-29T05:46:27;98595.91;;;9.43;82.97
56241;BME280;42155;53.096;23.226;2024-03-29T05:48:29;98604.38;;;9.83;81.94
56241;BME280;42155;53.096;23.226;2024-03-29T05:50:29;98572.50;;;10.54;80.16
56241;BME280;42155;53.096;23.226;2024-03-29T05:52:29;98586.53;;;11.98;77.04
56241;BME280;42155;53.096;23.226;2024-03-29T05:54:30;98596.75;;;13.84;71.97
56241;BME280;42155;53.096;23.226;2024-03-29T05:56:30;98565.53;;;15.19;67.09
56241;BME280;42155;53.096;23.226;2024-03-29T05:58:30;98582.56;;;16.62;63.84
56241;BME280;42155;53.096;23.226;2024-03-29T06:00:31;98570.53;;;17.81;59.88
56241;BME280;42155;53.096;23.226;2024-03-29T06:02:32;98573.47;;;18.73;57.48
56241;BME280;42155;53.096;23.226;2024-03-29T06:04:32;98569.72;;;19.39;55.44
56241;BME280;42155;53.096;23.226;2024-03-29T06:06:33;98566.09;;;19.13;55.52
56241;BME280;42155;53.096;23.226;2024-03-29T06:08:33;98563.31;;;18.75;55.64
56241;BME280;42155;53.096;23.226;2024-03-29T06:10:33;98570.78;;;18.73;55.10
56241;BME280;42155;53.096;23.226;2024-03-29T06:12:34;98567.88;;;17.95;56.65
56241;BME280;42155;53.096;23.226;2024-03-29T06:14:34;98583.19;;;16.92;58.19
56241;BME280;42155;53.096;23.226;2024-03-29T06:16:35;98591.91;;;15.95;60.13
56241;BME280;42155;53.096;23.226;2024-03-29T06:18:35;98590.69;;;15.10;61.73
56241;BME280;42155;53.096;23.226;2024-03-29T06:20:35;98584.81;;;14.33;63.59
56241;BME280;42155;53.096;23.226;2024-03-29T06:22:36;98542.81;;;13.51;65.11
56241;BME280;42155;53.096;23.226;2024-03-29T06:24:36;98611.63;;;13.47;65.72
56241;BME280;42155;53.096;23.226;2024-03-29T06:26:37;98625.47;;;13.04;66.53
56241;BME280;42155;53.096;23.226;2024-03-29T06:28:37;98631.34;;;12.74;67.59
56241;BME280;42155;53.096;23.226;2024-03-29T06:30:37;98618.28;;;12.48;67.88
56241;BME280;42155;53.096;23.226;2024-03-29T06:32:38;98623.41;;;12.34;68.58
56241;BME280;42155;53.096;23.226;2024-03-29T06:34:39;98565.13;;;11.83;69.08
56241;BME280;42155;53.096;23.226;2024-03-29T06:36:40;98626.41;;;12.06;69.07
56241;BME280;42155;53.096;23.226;2024-03-29T06:38:40;98623.56;;;11.91;69.36
56241;BME280;42155;53.096;23.226;2024-03-29T06:40:40;98631.34;;;11.77;69.53
56241;BME280;42155;53.096;23.226;2024-03-29T06:42:41;98638.63;;;11.66;69.59
56241;BME280;42155;53.096;23.226;2024-03-29T06:44:41;98646.53;;;11.50;69.33
56241;BME280;42155;53.096;23.226;2024-03-29T06:46:41;98637.38;;;11.36;69.62
56241;BME280;42155;53.096;23.226;2024-03-29T06:48:42;98615.53;;;11.08;70.22
56241;BME280;42155;53.096;23.226;2024-03-29T06:50:42;98636.75;;;11.08;70.56
56241;BME280;42155;53.096;23.226;2024-03-29T06:52:43;98655.53;;;11.07;70.20
56241;BME280;42155;53.096;23.226;2024-03-29T06:54:43;98649.81;;;10.93;70.43
56241;BME280;42155;53.096;23.226;2024-03-29T06:56:44;98661.59;;;10.91;70.79
56241;BME280;42155;53.096;23.226;2024-03-29T06:58:44;98651.69;;;10.75;70.86
56241;BME280;42155;53.096;23.226;2024-03-29T07:00:46;98683.75;;;10.82;71.10
56241;BME280;42155;53.096;23.226;2024-03-29T07:02:47;98683.53;;;10.75;70.69
56241;BME280;42155;53.096;23.226;2024-03-29T07:04:47;98684.69;;;10.73;71.02
56241;BME280;42155;53.096;23.226;2024-03-29T07:06:47;98654.72;;;10.54;71.37
56241;BME280;42155;53.096;23.226;2024-03-29T07:08:48;98674.06;;;10.73;71.67
56241;BME280;42155;53.096;23.226;2024-03-29T07:10:57;98663.03;;;10.59;71.15
56241;BME280;42155;53.096;23.226;2024-03-29T07:12:57;98679.97;;;10.66;71.47
56241;BME280;42155;53.096;23.226;2024-03-29T07:14:58;98688.84;;;10.75;71.07
56241;BME280;42155;53.096;23.226;2024-03-29T07:16:58;98692.56;;;10.82;71.13
56241;BME280;42155;53.096;23.226;2024-03-29T07:18:58;98687.06;;;10.84;71.23
56241;BME280;42155;53.096;23.226;2024-03-29T07:20:59;98677.50;;;10.91;71.07
56241;BME280;42155;53.096;23.226;2024-03-29T07:22:59;98704.34;;;11.14;70.36
56241;BME280;42155;53.096;23.226;2024-03-29T07:24:59;98643.56;;;10.77;70.06
56241;BME280;42155;53.096;23.226;2024-03-29T07:27:00;98687.94;;;11.18;69.57
56241;BME280;42155;53.096;23.226;2024-03-29T07:29:00;98697.97;;;11.33;69.47
56241;BME280;42155;53.096;23.226;2024-03-29T07:31:07;98704.28;;;11.40;68.78
56241;BME280;42155;53.096;23.226;2024-03-29T07:33:07;98631.78;;;11.05;68.99
56241;BME280;42155;53.096;23.226;2024-03-29T07:35:08;98687.75;;;11.54;68.70
56241;BME280;42155;53.096;23.226;2024-03-29T07:37:08;98705.75;;;11.77;68.40
56241;BME280;42155;53.096;23.226;2024-03-29T07:39:08;98702.19;;;11.94;68.01
56241;BME280;42155;53.096;23.226;2024-03-29T07:41:09;98719.88;;;12.36;67.26
56241;BME280;42155;53.096;23.226;2024-03-29T07:43:10;98704.72;;;12.69;66.98
56241;BME280;42155;53.096;23.226;2024-03-29T07:45:10;98715.50;;;13.00;66.05
56241;BME280;42155;53.096;23.226;2024-03-29T07:47:10;98701.16;;;13.17;65.17
56241;BME280;42155;53.096;23.226;2024-03-29T07:49:11;98709.47;;;13.31;64.35
56241;BME280;42155;53.096;23.226;2024-03-29T07:51:11;98691.16;;;13.28;64.41
56241;BME280;42155;53.096;23.226;2024-03-29T07:53:12;98724.25;;;13.41;64.23
56241;BME280;42155;53.096;23.226;2024-03-29T07:55:12;98705.31;;;13.36;64.14
56241;BME280;42155;53.096;23.226;2024-03-29T07:57:13;98717.63;;;13.37;63.73
56241;BME280;42155;53.096;23.226;2024-03-29T07:59:13;98719.44;;;13.37;63.98
56241;BME280;42155;53.096;23.226;2024-03-29T08:01:23;98697.44;;;13.35;63.31
56241;BME280;42155;53.096;23.226;2024-03-29T08:03:24;98725.16;;;13.65;63.07
56241;BME280;42155;53.096;23.226;2024-03-29T08:05:24;98741.56;;;13.85;62.34
56241;BME280;42155;53.096;23.226;2024-03-29T08:07:24;98736.16;;;14.01;62.00
56241;BME280;42155;53.096;23.226;2024-03-29T08:09:25;98751.75;;;14.12;61.51
56241;BME280;42155;53.096;23.226;2024-03-29T08:11:25;98754.09;;;14.38;60.38
56241;BME280;42155;53.096;23.226;2024-03-29T08:13:26;98745.38;;;14.52;60.02
56241;BME280;42155;53.096;23.226;2024-03-29T08:15:27;98762.69;;;14.80;59.93
56241;BME280;42155;53.096;23.226;2024-03-29T08:17:27;98761.16;;;15.00;59.47
56241;BME280;42155;53.096;23.226;2024-03-29T08:19:27;98744.22;;;15.08;59.22
56241;BME280;42155;53.096;23.226;2024-03-29T08:21:28;98769.31;;;15.36;58.36
56241;BME280;42155;53.096;23.226;2024-03-29T08:23:28;98770.69;;;15.47;57.99
56241;BME280;42155;53.096;23.226;2024-03-29T08:25:29;98778.56;;;15.48;57.01
56241;BME280;42155;53.096;23.226;2024-03-29T08:27:30;98779.75;;;15.61;56.11
56241;BME280;42155;53.096;23.226;2024-03-29T08:29:30;98773.03;;;15.65;56.38
56241;BME280;42155;53.096;23.226;2024-03-29T08:31:30;98765.75;;;15.73;55.88
56241;BME280;42155;53.096;23.226;2024-03-29T08:33:32;98773.56;;;15.90;55.20
56241;BME280;42155;53.096;23.226;2024-03-29T08:35:33;98790.53;;;15.97;55.35
56241;BME280;42155;53.096;23.226;2024-03-29T08:37:33;98783.91;;;15.93;54.75
56241;BME280;42155;53.096;23.226;2024-03-29T08:39:34;98783.09;;;15.77;54.93
56241;BME280;42155;53.096;23.226;2024-03-29T08:41:35;98790.84;;;15.72;54.71
56241;BME280;42155;53.096;23.226;2024-03-29T08:43:35;98781.13;;;15.71;54.60
56241;BME280;42155;53.096;23.226;2024-03-29T08:45:36;98789.81;;;15.73;54.43
56241;BME280;42155;53.096;23.226;2024-03-29T08:47:36;98776.44;;;15.73;53.90
56241;BME280;42155;53.096;23.226;2024-03-29T08:49:36;98790.16;;;15.85;53.88
56241;BME280;42155;53.096;23.226;2024-03-29T08:51:37;98787.97;;;15.89;53.13
56241;BME280;42155;53.096;23.226;2024-03-29T08:53:37;98780.69;;;15.83;52.85
56241;BME280;42155;53.096;23.226;2024-03-29T08:55:37;98796.19;;;15.87;53.09
56241;BME280;42155;53.096;23.226;2024-03-29T08:57:38;98786.22;;;15.96;52.47
56241;BME280;42155;53.096;23.226;2024-03-29T08:59:38;98800.03;;;16.14;52.47
56241;BME280;42155;53.096;23.226;2024-03-29T09:01:42;98803.44;;;16.23;52.75
56241;BME280;42155;53.096;23.226;2024-03-29T09:03:42;98795.97;;;16.40;52.33
56241;BME280;42155;53.096;23.226;2024-03-29T09:05:43;98792.56;;;16.46;52.18
56241;BME280;42155;53.096;23.226;2024-03-29T09:07:43;98811.38;;;16.52;51.14
56241;BME280;42155;53.096;23.226;2024-03-29T09:09:43;98758.91;;;16.22;51.04
56241;BME280;42155;53.096;23.226;2024-03-29T09:11:44;98796.69;;;16.48;51.09
56241;BME280;42155;53.096;23.226;2024-03-29T09:13:44;98799.56;;;16.47;50.49
56241;BME280;42155;53.096;23.226;2024-03-29T09:15:44;98809.53;;;16.53;50.40
56241;BME280;42155;53.096;23.226;2024-03-29T09:17:48;98783.56;;;16.32;49.87
56241;BME280;42155;53.096;23.226;2024-03-29T09:19:52;98809.63;;;16.45;49.86
56241;BME280;42155;53.096;23.226;2024-03-29T09:21:52;98765.59;;;16.11;50.16
56241;BME280;42155;53.096;23.226;2024-03-29T09:23:52;98816.13;;;16.36;49.11
56241;BME280;42155;53.096;23.226;2024-03-29T09:25:53;98802.25;;;16.11;49.60
56241;BME280;42155;53.096;23.226;2024-03-29T09:27:53;98811.25;;;16.24;50.45
56241;BME280;42155;53.096;23.226;2024-03-29T09:29:55;98817.16;;;16.35;50.06
56241;BME280;42155;53.096;23.226;2024-03-29T09:31:55;98815.03;;;16.30;49.77
56241;BME280;42155;53.096;23.226;2024-03-29T09:33:55;98828.31;;;16.38;49.49
56241;BME280;42155;53.096;23.226;2024-03-29T09:35:56;98840.13;;;16.44;48.62
56241;BME280;42155;53.096;23.226;2024-03-29T09:37:56;98836.41;;;16.45;48.88
56241;BME280;42155;53.096;23.226;2024-03-29T09:39:56;98830.31;;;16.51;48.76
56241;BME280;42155;53.096;23.226;2024-03-29T09:41:58;98838.66;;;16.63;48.63
56241;BME280;42155;53.096;23.226;2024-03-29T09:44:02;98834.66;;;16.52;47.90
56241;BME280;42155;53.096;23.226;2024-03-29T09:46:03;98850.66;;;16.30;48.22
56241;BME280;42155;53.096;23.226;2024-03-29T09:48:04;98847.44;;;16.20;48.36
56241;BME280;42155;53.096;23.226;2024-03-29T09:50:06;98835.41;;;15.95;48.21
56241;BME280;42155;53.096;23.226;2024-03-29T09:52:08;98864.63;;;16.11;48.51
56241;BME280;42155;53.096;23.226;2024-03-29T09:54:09;98862.50;;;16.07;48.04
56241;BME280;42155;53.096;23.226;2024-03-29T09:56:10;98858.06;;;15.99;48.15
56241;BME280;42155;53.096;23.226;2024-03-29T09:58:10;98860.31;;;15.95;48.43
56241;BME280;42155;53.096;23.226;2024-03-29T10:00:11;98872.19;;;16.08;48.53
56241;BME280;42155;53.096;23.226;2024-03-29T10:02:15;98874.31;;;16.27;48.38
56241;BME280;42155;53.096;23.226;2024-03-29T10:04:16;98868.38;;;16.46;48.31
56241;BME280;42155;53.096;23.226;2024-03-29T10:06:18;98875.25;;;16.70;47.84
56241;BME280;42155;53.096;23.226;2024-03-29T10:08:19;98872.34;;;16.87;47.56
56241;BME280;42155;53.096;23.226;2024-03-29T10:10:19;98875.31;;;16.92;46.41
56241;BME280;42155;53.096;23.226;2024-03-29T10:12:20;98884.91;;;16.86;46.05
56241;BME280;42155;53.096;23.226;2024-03-29T10:14:20;98871.19;;;16.74;45.58
56241;BME280;42155;53.096;23.226;2024-03-29T10:16:21;98876.06;;;16.71;45.83
56241;BME280;42155;53.096;23.226;2024-03-29T10:18:22;98889.88;;;16.53;45.61
56241;BME280;42155;53.096;23.226;2024-03-29T10:20:23;98886.41;;;16.23;45.84
56241;BME280;42155;53.096;23.226;2024-03-29T10:22:23;98898.41;;;16.12;46.57
56241;BME280;42155;53.096;23.226;2024-03-29T10:24:23;98900.25;;;15.97;47.66
56241;BME280;42155;53.096;23.226;2024-03-29T10:26:24;98910.41;;;15.87;47.48
56241;BME280;42155;53.096;23.226;2024-03-29T10:28:29;98909.47;;;15.79;47.73
56241;BME280;42155;53.096;23.226;2024-03-29T10:30:30;98919.25;;;15.72;47.62
56241;BME280;42155;53.096;23.226;2024-03-29T10:32:30;98901.66;;;15.55;47.76
56241;BME280;42155;53.096;23.226;2024-03-29T10:34:31;98896.38;;;15.47;47.73